Time;durP1;ratioP1;P1;durP2;ratioP2;P2;SDS_P1;SDS_P2;PMS_P1;PMS_P2;Temp;Humidity;BMP_temperature;BMP_pressure;BME280_temperature;BME280_humidity;BME280_pressure;Samples;Min_cycle;Max_cycle;Signal;HPM_P1;HPM_P2
2023/11/01 00:00:17;;;;;;;2.95;0.60;;;10.80;99.90;;;;;;5004404;28;20034;-67
2023/11/01 00:02:43;;;;;;;4.22;0.85;;;10.80;99.90;;;;;;5008354;28;20659;-67
2023/11/01 00:05:08;;;;;;;1.55;0.50;;;10.80;99.90;;;;;;5008796;28;20045;-67
2023/11/01 00:07:34;;;;;;;0.30;0.30;;;10.80;99.90;;;;;;5008599;28;20502;-67
2023/11/01 00:10:00;;;;;;;1.95;0.40;;;10.70;99.90;;;;;;5008396;28;20042;-67
2023/11/01 00:12:26;;;;;;;2.05;0.65;;;10.70;99.90;;;;;;5008347;28;20038;-67
2023/11/01 00:14:51;;;;;;;4.65;1.08;;;10.70;99.90;;;;;;5008266;28;20036;-66
2023/11/01 00:17:17;;;;;;;1.77;0.50;;;10.70;99.90;;;;;;5008451;28;20033;-67
2023/11/01 00:19:43;;;;;;;2.92;0.70;;;10.70;99.90;;;;;;5008686;28;20095;-67
2023/11/01 00:22:09;;;;;;;6.43;1.02;;;10.70;99.90;;;;;;5007882;28;20601;-67
2023/11/01 00:24:37;;;;;;;1.90;0.75;;;10.70;99.90;;;;;;5008317;28;20117;-67
2023/11/01 00:27:03;;;;;;;1.50;0.45;;;10.70;99.90;;;;;;5008478;28;20042;-68
2023/11/01 00:29:29;;;;;;;0.60;0.60;;;10.60;99.90;;;;;;5008045;28;20033;-67
2023/11/01 00:31:55;;;;;;;1.20;0.50;;;10.60;99.90;;;;;;5006289;28;20038;-67
2023/11/01 00:34:20;;;;;;;4.32;0.93;;;10.50;99.90;;;;;;5007633;28;20034;-67
2023/11/01 00:36:46;;;;;;;1.27;0.60;;;10.50;99.90;;;;;;5007914;28;20037;-67
2023/11/01 00:39:12;;;;;;;2.40;0.45;;;10.50;99.90;;;;;;5008001;28;20049;-67
2023/11/01 00:41:38;;;;;;;0.63;0.40;;;10.40;99.90;;;;;;5006461;28;20119;-67
2023/11/01 00:44:04;;;;;;;1.63;0.70;;;10.40;99.90;;;;;;5007623;28;20528;-68
2023/11/01 00:46:31;;;;;;;1.27;0.63;;;10.40;99.90;;;;;;5005449;28;20030;-67
2023/11/01 00:48:58;;;;;;;1.20;0.40;;;10.40;99.90;;;;;;5013139;28;20418;-67
2023/11/01 00:51:23;;;;;;;2.00;0.52;;;10.30;99.90;;;;;;5006148;28;20039;-67
2023/11/01 00:53:49;;;;;;;0.93;0.50;;;10.30;99.90;;;;;;5006234;28;20164;-67
2023/11/01 00:56:15;;;;;;;1.85;0.55;;;10.30;99.90;;;;;;5007725;28;20117;-68
2023/11/01 00:58:40;;;;;;;0.68;0.38;;;10.30;99.90;;;;;;5005974;28;20436;-68
2023/11/01 01:01:06;;;;;;;1.52;0.80;;;10.30;99.90;;;;;;5007587;28;20033;-67
2023/11/01 01:03:32;;;;;;;1.92;0.60;;;10.30;99.90;;;;;;5007347;28;20034;-68
2023/11/01 01:05:58;;;;;;;1.40;0.50;;;10.30;99.90;;;;;;5007499;28;20103;-67
2023/11/01 01:08:23;;;;;;;2.65;0.52;;;10.30;99.90;;;;;;5007578;28;20022;-68
2023/11/01 01:10:49;;;;;;;2.05;0.40;;;10.30;99.90;;;;;;5006070;28;20041;-67
2023/11/01 01:13:15;;;;;;;1.92;0.60;;;10.30;99.90;;;;;;5006475;28;20038;-67
2023/11/01 01:15:41;;;;;;;2.25;0.60;;;10.30;99.90;;;;;;5005860;28;20084;-67
2023/11/01 01:18:07;;;;;;;1.65;0.60;;;10.30;99.90;;;;;;5005876;28;20060;-67
2023/11/01 01:20:33;;;;;;;2.25;0.88;;;10.30;99.90;;;;;;5005520;28;20054;-67
2023/11/01 01:22:58;;;;;;;3.60;0.60;;;10.40;99.90;;;;;;5007111;28;20061;-67
2023/11/01 01:25:24;;;;;;;3.55;0.80;;;10.30;99.90;;;;;;5007041;28;20033;-67
2023/11/01 01:27:50;;;;;;;1.48;0.43;;;10.40;99.90;;;;;;5005539;28;20034;-67
2023/11/01 01:30:16;;;;;;;1.85;0.82;;;10.40;99.90;;;;;;5005261;28;20030;-67
2023/11/01 01:32:41;;;;;;;0.80;0.50;;;10.40;99.90;;;;;;5005311;28;20551;-67
2023/11/01 01:35:07;;;;;;;0.93;0.60;;;10.40;99.90;;;;;;5005617;28;20387;-67
2023/11/01 01:37:33;;;;;;;1.75;0.47;;;10.40;99.90;;;;;;5006796;28;20033;-67
2023/11/01 01:39:59;;;;;;;3.15;0.57;;;10.40;99.90;;;;;;5005398;28;20418;-68
2023/11/01 01:42:25;;;;;;;1.38;0.63;;;10.40;99.90;;;;;;5005222;28;20042;-67
2023/11/01 01:44:51;;;;;;;2.05;0.52;;;10.40;99.90;;;;;;5004685;28;20042;-67
2023/11/01 01:47:18;;;;;;;2.63;0.70;;;10.40;99.90;;;;;;5006747;28;20041;-68
2023/11/01 01:49:45;;;;;;;0.88;0.50;;;10.50;99.90;;;;;;5005241;28;20034;-68
2023/11/01 01:52:11;;;;;;;2.45;0.65;;;10.40;99.90;;;;;;5006839;28;20556;-68
2023/11/01 01:54:37;;;;;;;1.17;0.30;;;10.40;99.90;;;;;;5002542;28;20161;-67
2023/11/01 01:57:03;;;;;;;3.67;0.50;;;10.40;99.90;;;;;;5022950;28;20038;-67
2023/11/01 01:59:29;;;;;;;0.30;0.30;;;10.40;99.90;;;;;;5038157;28;20033;-67
2023/11/01 02:01:56;;;;;;;1.92;0.40;;;10.40;99.90;;;;;;5004865;28;20037;-67
2023/11/01 02:04:22;;;;;;;1.65;0.80;;;10.40;99.90;;;;;;5000861;28;20484;-67
2023/11/01 02:06:48;;;;;;;1.33;0.65;;;10.40;99.90;;;;;;5004763;28;20030;-68
2023/11/01 02:09:16;;;;;;;0.57;0.47;;;10.30;99.90;;;;;;5004647;28;20041;-67
2023/11/01 02:11:43;;;;;;;0.50;0.43;;;10.40;99.90;;;;;;5005865;28;20033;-67
2023/11/01 02:14:09;;;;;;;1.63;0.40;;;10.30;99.90;;;;;;5004589;28;20041;-67
2023/11/01 02:16:34;;;;;;;3.83;0.60;;;10.40;99.90;;;;;;5004892;28;20034;-67
2023/11/01 02:19:00;;;;;;;0.73;0.47;;;10.40;99.90;;;;;;5004497;28;20041;-67
2023/11/01 02:21:26;;;;;;;0.57;0.40;;;10.40;99.90;;;;;;5006017;28;20049;-67
2023/11/01 02:23:52;;;;;;;3.67;0.57;;;10.40;99.90;;;;;;5004504;28;20044;-67
2023/11/01 02:26:18;;;;;;;1.90;0.57;;;10.40;99.90;;;;;;5004027;28;20033;-67
2023/11/01 02:28:44;;;;;;;0.82;0.50;;;10.40;99.90;;;;;;5004118;28;20033;-68
2023/11/01 02:31:09;;;;;;;0.98;0.57;;;10.40;99.90;;;;;;5004410;28;20034;-67
2023/11/01 02:33:35;;;;;;;0.85;0.40;;;10.40;99.90;;;;;;5005745;28;20028;-67
2023/11/01 02:36:02;;;;;;;0.38;0.38;;;10.50;99.90;;;;;;5006387;28;20486;-68
2023/11/01 02:38:28;;;;;;;2.95;0.43;;;10.40;99.90;;;;;;5004882;28;20137;-67
2023/11/01 02:40:53;;;;;;;1.30;0.50;;;10.40;99.90;;;;;;5005995;28;20113;-68
2023/11/01 02:43:19;;;;;;;0.85;0.40;;;10.40;99.90;;;;;;5005727;28;20468;-68
2023/11/01 02:45:48;;;;;;;1.65;0.47;;;10.40;99.90;;;;;;5004302;28;20607;-67
2023/11/01 02:48:13;;;;;;;0.82;0.40;;;10.40;99.90;;;;;;5005712;28;20052;-67
2023/11/01 02:50:39;;;;;;;2.00;0.98;;;10.40;99.90;;;;;;5003876;28;20425;-67
2023/11/01 02:53:05;;;;;;;4.43;0.47;;;10.40;99.90;;;;;;5005381;28;20539;-67
2023/11/01 02:55:31;;;;;;;1.13;0.35;;;10.40;99.90;;;;;;5005513;28;20116;-67
2023/11/01 02:57:57;;;;;;;2.40;0.50;;;10.40;99.90;;;;;;5004089;28;20624;-67
2023/11/01 03:00:23;;;;;;;1.08;0.30;;;10.40;99.90;;;;;;5005583;28;20046;-67
2023/11/01 03:02:49;;;;;;;1.55;0.40;;;10.40;99.90;;;;;;5002728;28;20026;-67
2023/11/01 03:05:16;;;;;;;4.70;1.13;;;10.40;99.90;;;;;;5019327;28;20775;-67
2023/11/01 03:07:42;;;;;;;0.75;0.32;;;10.40;99.90;;;;;;5004078;28;20037;-67
2023/11/01 03:10:09;;;;;;;1.10;0.55;;;10.40;99.90;;;;;;5003629;28;20042;-67
2023/11/01 03:12:37;;;;;;;1.70;0.60;;;10.40;99.90;;;;;;5005122;28;20065;-68
2023/11/01 03:15:04;;;;;;;3.17;0.98;;;10.50;99.90;;;;;;5005174;28;20580;-67
2023/11/01 03:17:30;;;;;;;0.40;0.40;;;10.50;99.90;;;;;;5003859;28;20057;-66
2023/11/01 03:19:56;;;;;;;0.60;0.60;;;10.40;99.90;;;;;;5036925;28;20145;-67
2023/11/01 03:22:23;;;;;;;0.90;0.40;;;10.40;99.90;;;;;;5004150;28;20391;-67
2023/11/01 03:24:49;;;;;;;0.63;0.30;;;10.50;99.90;;;;;;5003614;28;20053;-67
2023/11/01 03:27:14;;;;;;;1.25;0.50;;;10.50;99.90;;;;;;5003575;28;20034;-67
2023/11/01 03:29:40;;;;;;;1.05;0.93;;;10.50;99.90;;;;;;5036730;28;20125;-67
2023/11/01 03:32:08;;;;;;;1.30;0.50;;;10.50;99.90;;;;;;5003302;28;20116;-67
2023/11/01 03:34:34;;;;;;;1.77;0.40;;;10.50;99.90;;;;;;5004734;28;20585;-67
2023/11/01 03:37:01;;;;;;;1.38;0.68;;;10.50;99.90;;;;;;5010063;28;20049;-68
2023/11/01 03:39:26;;;;;;;2.42;0.40;;;10.50;99.90;;;;;;5011492;28;20084;-67
2023/11/01 03:41:52;;;;;;;0.40;0.38;;;10.50;99.90;;;;;;5011377;28;20864;-67
2023/11/01 03:44:18;;;;;;;2.03;0.50;;;10.60;99.90;;;;;;5009811;28;20034;-67
2023/11/01 03:46:45;;;;;;;0.82;0.45;;;10.60;99.90;;;;;;5042851;28;20030;-68
2023/11/01 03:49:11;;;;;;;1.00;0.60;;;10.60;99.90;;;;;;5011345;28;20030;-66
2023/11/01 03:51:37;;;;;;;1.50;0.50;;;10.60;99.90;;;;;;5009677;28;20034;-67
2023/11/01 03:54:03;;;;;;;3.10;0.68;;;10.60;99.90;;;;;;5011173;28;20600;-67
2023/11/01 03:56:29;;;;;;;1.02;0.50;;;10.60;99.90;;;;;;5011456;28;20049;-67
2023/11/01 03:58:55;;;;;;;0.55;0.55;;;10.60;99.90;;;;;;5011619;28;20154;-67
2023/11/01 04:01:22;;;;;;;0.80;0.50;;;10.60;99.90;;;;;;5011748;28;20471;-66
2023/11/01 04:03:48;;;;;;;0.50;0.40;;;10.60;99.90;;;;;;5011468;28;20044;-67
2023/11/01 04:06:13;;;;;;;2.72;0.65;;;10.60;99.90;;;;;;5011502;28;20037;-67
2023/11/01 04:08:39;;;;;;;3.65;0.47;;;10.60;99.90;;;;;;5011685;28;20060;-67
2023/11/01 04:11:05;;;;;;;1.98;0.80;;;10.60;99.90;;;;;;5011519;28;20042;-67
2023/11/01 04:13:34;;;;;;;2.05;0.63;;;10.60;99.90;;;;;;5011286;28;20044;-67
2023/11/01 04:15:59;;;;;;;1.48;0.55;;;10.60;99.90;;;;;;5011124;28;20045;-67
2023/11/01 04:18:26;;;;;;;0.68;0.40;;;10.60;99.90;;;;;;5011234;28;20036;-67
2023/11/01 04:20:52;;;;;;;1.50;1.02;;;10.60;99.90;;;;;;5011047;28;20087;-67
2023/11/01 04:23:19;;;;;;;2.00;0.70;;;10.60;99.90;;;;;;5011006;28;20445;-67
2023/11/01 04:25:45;;;;;;;0.40;0.40;;;10.60;99.90;;;;;;5011064;28;20129;-67
2023/11/01 04:28:12;;;;;;;2.67;0.63;;;10.50;99.90;;;;;;5011102;28;20196;-67
2023/11/01 04:30:39;;;;;;;0.93;0.50;;;10.60;99.90;;;;;;5010687;28;20038;-67
2023/11/01 04:33:07;;;;;;;0.43;0.32;;;10.60;99.90;;;;;;5005497;28;20049;-67
2023/11/01 04:35:34;;;;;;;2.72;0.70;;;10.60;99.90;;;;;;5011320;28;20057;-67
2023/11/01 04:38:01;;;;;;;0.73;0.50;;;10.60;99.90;;;;;;5010933;28;20109;-68
2023/11/01 04:40:27;;;;;;;1.75;0.50;;;10.60;99.90;;;;;;4999238;28;20044;-68
2023/11/01 04:42:52;;;;;;;2.97;0.40;;;10.50;99.90;;;;;;5011186;28;20494;-67
2023/11/01 04:45:18;;;;;;;2.05;0.50;;;10.50;99.90;;;;;;5010921;28;20033;-67
2023/11/01 04:47:46;;;;;;;0.50;0.40;;;10.50;99.90;;;;;;5008429;28;20048;-67
2023/11/01 04:50:13;;;;;;;2.15;0.47;;;10.50;99.90;;;;;;5007695;28;20045;-68
2023/11/01 04:52:40;;;;;;;0.90;0.38;;;10.50;99.90;;;;;;5006775;28;20037;-67
2023/11/01 04:55:08;;;;;;;3.92;0.85;;;10.50;99.90;;;;;;5008003;28;20501;-67
2023/11/01 04:57:34;;;;;;;0.47;0.25;;;10.50;99.90;;;;;;5007718;28;20021;-67
2023/11/01 05:00:01;;;;;;;1.95;0.50;;;10.50;99.90;;;;;;5007495;28;20029;-67
2023/11/01 05:02:26;;;;;;;0.20;0.15;;;10.50;99.90;;;;;;5007434;28;20065;-67
2023/11/01 05:04:52;;;;;;;0.17;0.17;;;10.50;99.90;;;;;;5007658;28;20081;-67
2023/11/01 05:07:19;;;;;;;0.50;0.30;;;10.40;99.90;;;;;;5007310;28;20035;-67
2023/11/01 05:09:45;;;;;;;0.40;0.20;;;10.40;99.90;;;;;;5007391;28;20105;-67
2023/11/01 05:12:11;;;;;;;3.03;0.52;;;10.30;99.90;;;;;;5006841;28;20042;-68
2023/11/01 05:14:36;;;;;;;1.40;0.50;;;10.30;99.90;;;;;;5005744;28;20025;-67
2023/11/01 05:17:02;;;;;;;1.23;0.40;;;10.30;99.90;;;;;;5007081;28;20061;-67
2023/11/01 05:19:28;;;;;;;3.05;0.40;;;10.20;99.90;;;;;;5007329;28;20029;-67
2023/11/01 05:21:54;;;;;;;0.40;0.25;;;10.20;99.90;;;;;;5007297;28;20033;-67
2023/11/01 05:24:19;;;;;;;0.47;0.30;;;10.20;99.90;;;;;;5007196;28;20576;-67
2023/11/01 05:26:46;;;;;;;2.25;0.30;;;10.20;99.90;;;;;;5007086;28;20030;-67
2023/11/01 05:29:13;;;;;;;0.50;0.30;;;10.20;99.90;;;;;;5006983;28;20033;-69
2023/11/01 05:31:39;;;;;;;0.50;0.40;;;10.20;99.90;;;;;;5007066;28;20029;-67
2023/11/01 05:34:05;;;;;;;3.80;0.50;;;10.20;99.90;;;;;;5007089;28;20111;-68
2023/11/01 05:36:31;;;;;;;0.90;0.20;;;10.20;99.90;;;;;;5007098;28;20104;-69
2023/11/01 05:38:58;;;;;;;0.50;0.50;;;10.20;99.90;;;;;;5006982;28;20042;-69
2023/11/01 05:41:24;;;;;;;0.82;0.35;;;10.20;99.90;;;;;;5003133;28;20038;-67
2023/11/01 05:43:49;;;;;;;2.95;0.50;;;10.20;99.90;;;;;;5006622;28;20234;-68
2023/11/01 05:46:20;;;;;;;1.50;0.60;;;10.20;99.90;;;;;;5005801;28;20121;-67
2023/11/01 05:48:47;;;;;;;2.33;0.38;;;10.20;99.90;;;;;;5006655;28;20241;-69
2023/11/01 05:51:12;;;;;;;0.60;0.60;;;10.30;99.90;;;;;;5006577;28;20044;-67
2023/11/01 05:53:38;;;;;;;0.68;0.20;;;10.30;99.90;;;;;;5006643;28;20029;-69
2023/11/01 05:56:04;;;;;;;0.30;0.22;;;10.20;99.90;;;;;;5006583;28;20120;-68
2023/11/01 05:58:30;;;;;;;0.20;0.20;;;10.20;99.90;;;;;;5006450;28;20030;-67
2023/11/01 06:00:56;;;;;;;0.43;0.20;;;10.20;99.90;;;;;;5006436;28;20111;-69
2023/11/01 06:03:25;;;;;;;1.10;0.55;;;10.20;99.90;;;;;;5004841;28;20081;-67
2023/11/01 06:05:52;;;;;;;0.98;0.30;;;10.20;99.90;;;;;;5006020;28;20426;-68
2023/11/01 06:08:18;;;;;;;1.13;0.40;;;10.30;99.90;;;;;;5005369;28;20049;-69
2023/11/01 06:10:44;;;;;;;1.45;0.38;;;10.30;99.90;;;;;;5004927;28;20041;-69
2023/11/01 06:13:10;;;;;;;0.43;0.30;;;10.30;99.90;;;;;;5006255;28;20030;-69
2023/11/01 06:15:37;;;;;;;2.45;0.38;;;10.30;99.90;;;;;;5006300;28;20034;-68
2023/11/01 06:18:05;;;;;;;3.42;0.80;;;10.30;99.90;;;;;;5006184;28;20034;-68
2023/11/01 06:20:35;;;;;;;2.42;0.50;;;10.30;99.90;;;;;;5006212;28;20112;-68
2023/11/01 06:23:04;;;;;;;0.40;0.40;;;10.40;99.90;;;;;;5006133;28;20050;-69
2023/11/01 06:25:30;;;;;;;0.40;0.40;;;10.40;99.90;;;;;;5006057;28;20699;-69
2023/11/01 06:27:57;;;;;;;1.00;0.60;;;10.40;99.90;;;;;;5001914;28;20033;-69
2023/11/01 06:30:22;;;;;;;0.40;0.35;;;10.40;99.90;;;;;;5005658;28;20437;-69
2023/11/01 06:32:48;;;;;;;2.28;0.50;;;10.50;99.90;;;;;;5005757;28;20048;-69
2023/11/01 06:35:14;;;;;;;1.85;0.30;;;10.50;99.90;;;;;;5006006;28;20561;-69
2023/11/01 06:37:39;;;;;;;1.42;0.50;;;10.50;99.90;;;;;;5005835;28;20060;-69
2023/11/01 06:40:06;;;;;;;2.85;0.50;;;10.50;99.90;;;;;;5005592;28;20030;-69
2023/11/01 06:42:32;;;;;;;2.33;0.55;;;10.60;99.90;;;;;;5005582;28;20402;-69
2023/11/01 06:44:57;;;;;;;1.02;0.35;;;10.60;99.90;;;;;;5005616;28;20045;-70
2023/11/01 06:47:23;;;;;;;2.67;0.52;;;10.60;99.90;;;;;;5005692;28;20033;-68
2023/11/01 06:49:49;;;;;;;0.82;0.50;;;10.60;99.90;;;;;;5005678;28;20037;-69
2023/11/01 06:52:15;;;;;;;1.38;0.65;;;10.70;99.90;;;;;;5003682;28;20038;-69
2023/11/01 06:54:43;;;;;;;0.43;0.43;;;10.70;99.90;;;;;;5004222;28;20041;-69
2023/11/01 06:57:10;;;;;;;0.60;0.45;;;10.70;99.90;;;;;;5005988;28;20041;-68
2023/11/01 06:59:38;;;;;;;0.63;0.50;;;10.70;99.90;;;;;;5005599;28;20059;-68
2023/11/01 07:02:06;;;;;;;1.20;0.47;;;10.80;99.90;;;;;;5005246;28;20099;-69
2023/11/01 07:04:31;;;;;;;1.67;0.50;;;10.80;99.90;;;;;;5005636;28;20033;-69
2023/11/01 07:06:57;;;;;;;3.40;0.57;;;10.70;99.90;;;;;;5005293;28;20089;-69
2023/11/01 07:09:24;;;;;;;3.38;0.73;;;10.70;99.90;;;;;;5004948;28;20087;-69
2023/11/01 07:11:50;;;;;;;5.85;0.70;;;10.60;99.90;;;;;;5004512;28;20799;-69
2023/11/01 07:14:16;;;;;;;1.25;0.50;;;10.60;99.90;;;;;;5004863;28;20038;-69
2023/11/01 07:16:42;;;;;;;0.98;0.40;;;10.50;99.90;;;;;;5005235;28;20034;-69
2023/11/01 07:19:08;;;;;;;2.35;0.57;;;10.50;99.90;;;;;;5004690;28;20079;-69
2023/11/01 07:21:34;;;;;;;1.20;0.70;;;10.50;99.90;;;;;;5004939;28;20033;-69
2023/11/01 07:24:00;;;;;;;3.20;0.68;;;10.40;99.90;;;;;;5004795;28;20041;-69
2023/11/01 07:26:25;;;;;;;1.35;0.60;;;10.40;99.90;;;;;;5001932;28;20129;-69
2023/11/01 07:28:51;;;;;;;0.50;0.50;;;10.40;99.90;;;;;;5005135;28;20033;-69
2023/11/01 07:31:17;;;;;;;2.05;0.70;;;10.40;99.90;;;;;;5004876;28;20171;-69
2023/11/01 07:33:44;;;;;;;1.30;0.70;;;10.40;99.90;;;;;;5004961;28;20069;-69
2023/11/01 07:36:10;;;;;;;0.63;0.55;;;10.50;99.90;;;;;;5005028;28;20732;-70
2023/11/01 07:38:36;;;;;;;1.33;0.60;;;10.50;99.90;;;;;;5005226;28;20107;-69
2023/11/01 07:41:02;;;;;;;3.70;0.68;;;10.50;99.90;;;;;;5004797;28;20053;-69
2023/11/01 07:43:28;;;;;;;1.85;0.77;;;10.60;99.90;;;;;;5005158;28;20455;-69
2023/11/01 07:45:54;;;;;;;2.63;0.82;;;10.60;99.90;;;;;;5004922;28;20037;-69
2023/11/01 07:48:20;;;;;;;0.68;0.50;;;10.70;99.90;;;;;;5005154;28;20137;-69
2023/11/01 07:50:46;;;;;;;1.70;0.77;;;10.80;99.90;;;;;;5004788;28;20720;-69
2023/11/01 07:53:12;;;;;;;1.63;0.50;;;10.90;99.90;;;;;;5004373;28;20029;-69
2023/11/01 07:55:38;;;;;;;0.57;0.47;;;10.90;99.90;;;;;;5004962;28;20037;-69
2023/11/01 07:58:03;;;;;;;2.03;0.70;;;11.00;99.90;;;;;;5005021;28;20075;-69
2023/11/01 08:00:29;;;;;;;5.63;1.20;;;11.10;99.90;;;;;;5004635;28;20030;-69
2023/11/01 08:02:55;;;;;;;1.35;0.47;;;11.10;99.90;;;;;;5004567;28;20042;-69
2023/11/01 08:05:22;;;;;;;2.55;0.80;;;11.10;99.90;;;;;;5004761;28;20034;-69
2023/11/01 08:07:48;;;;;;;0.82;0.60;;;11.20;99.90;;;;;;5004544;28;20022;-69
2023/11/01 08:10:14;;;;;;;5.85;1.05;;;11.20;99.90;;;;;;5004443;28;20033;-69
2023/11/01 08:12:40;;;;;;;2.78;1.05;;;11.30;99.90;;;;;;5004374;28;20826;-69
2023/11/01 08:15:06;;;;;;;1.83;0.70;;;11.40;99.90;;;;;;5004907;28;20034;-69
2023/11/01 08:17:32;;;;;;;2.17;0.93;;;11.40;99.90;;;;;;5004791;28;20661;-69
2023/11/01 08:19:58;;;;;;;1.58;0.90;;;11.60;99.90;;;;;;5002701;28;20034;-71
2023/11/01 08:22:25;;;;;;;4.85;1.30;;;11.70;99.90;;;;;;4989186;28;20061;-68
2023/11/01 08:24:51;;;;;;;3.10;1.10;;;11.80;99.90;;;;;;5008763;28;20608;-69
2023/11/01 08:27:17;;;;;;;2.80;1.33;;;12.00;99.90;;;;;;5008298;28;20033;-69
2023/11/01 08:29:43;;;;;;;2.63;1.08;;;12.10;99.90;;;;;;5007231;28;20040;-70
2023/11/01 08:32:09;;;;;;;3.45;1.00;;;12.40;99.90;;;;;;5008115;28;20038;-70
2023/11/01 08:34:35;;;;;;;5.88;1.10;;;12.60;99.90;;;;;;5008089;28;20030;-70
2023/11/01 08:37:02;;;;;;;1.92;0.85;;;12.80;99.90;;;;;;5007724;28;20096;-70
2023/11/01 08:39:28;;;;;;;3.35;1.15;;;13.00;99.90;;;;;;5008019;28;20037;-70
2023/11/01 08:41:53;;;;;;;1.95;1.13;;;13.30;99.90;;;;;;5007732;28;20069;-70
2023/11/01 08:44:19;;;;;;;1.25;1.05;;;13.60;99.90;;;;;;5007250;28;20037;-70
2023/11/01 08:46:45;;;;;;;3.67;1.35;;;13.80;99.90;;;;;;5007803;28;20044;-70
2023/11/01 08:49:11;;;;;;;3.30;0.90;;;13.90;99.90;;;;;;5007617;28;20074;-70
2023/11/01 08:51:39;;;;;;;2.50;1.23;;;14.00;99.90;;;;;;5007397;28;20073;-70
2023/11/01 08:54:10;;;;;;;8.57;1.73;;;14.10;99.90;;;;;;5007308;28;20038;-70
2023/11/01 08:56:36;;;;;;;3.45;0.90;;;14.30;99.90;;;;;;5007586;28;20022;-67
2023/11/01 08:59:04;;;;;;;2.88;0.80;;;14.20;99.90;;;;;;5007046;28;20092;-69
2023/11/01 09:01:30;;;;;;;1.95;1.15;;;14.10;99.90;;;;;;5006900;28;20149;-69
2023/11/01 09:03:56;;;;;;;1.98;1.20;;;14.30;99.90;;;;;;5007684;28;20153;-69
2023/11/01 09:06:22;;;;;;;1.80;0.98;;;15.00;99.90;;;;;;5007257;28;20144;-67
2023/11/01 09:08:48;;;;;;;2.25;1.40;;;16.20;98.50;;;;;;5004307;28;20096;-67
2023/11/01 09:11:13;;;;;;;1.50;1.00;;;17.60;95.80;;;;;;5007190;28;20438;-69
2023/11/01 09:13:39;;;;;;;4.88;1.08;;;18.30;94.00;;;;;;5007124;28;20141;-74
2023/11/01 09:16:05;;;;;;;3.65;1.13;;;18.40;92.80;;;;;;5005120;28;20037;-74
2023/11/01 09:18:31;;;;;;;3.05;0.90;;;18.70;92.80;;;;;;5003514;28;20030;-70
2023/11/01 09:20:57;;;;;;;2.60;0.70;;;19.20;92.10;;;;;;5006078;28;20663;-67
2023/11/01 09:23:23;;;;;;;4.35;0.80;;;19.90;91.10;;;;;;5006935;28;20025;-70
2023/11/01 09:25:49;;;;;;;4.32;0.90;;;20.20;88.70;;;;;;5007550;28;20030;-69
2023/11/01 09:28:15;;;;;;;2.60;0.93;;;20.50;89.00;;;;;;5007086;28;20034;-70
2023/11/01 09:30:41;;;;;;;5.47;1.15;;;20.90;87.10;;;;;;5006636;28;20391;-70
2023/11/01 09:33:07;;;;;;;2.45;0.93;;;21.60;84.80;;;;;;5006447;28;20168;-69
2023/11/01 09:35:33;;;;;;;2.45;0.90;;;21.80;82.20;;;;;;5006400;28;20109;-69
2023/11/01 09:37:59;;;;;;;1.90;0.80;;;22.00;81.70;;;;;;5006557;28;20188;-70
2023/11/01 09:40:25;;;;;;;2.97;0.85;;;21.90;81.20;;;;;;5005262;28;20032;-70
2023/11/01 09:42:53;;;;;;;3.53;1.23;;;22.20;80.10;;;;;;5006827;28;20149;-69
2023/11/01 09:45:20;;;;;;;7.82;1.30;;;22.20;79.30;;;;;;5006903;28;20069;-70
2023/11/01 09:47:48;;;;;;;3.95;0.80;;;22.30;79.00;;;;;;5001663;28;20021;-68
2023/11/01 09:50:16;;;;;;;2.33;0.90;;;22.20;78.30;;;;;;5006336;28;20049;-69
2023/11/01 09:52:42;;;;;;;1.13;0.80;;;21.20;80.50;;;;;;5004520;28;20041;-72
2023/11/01 09:55:08;;;;;;;4.30;0.80;;;20.10;84.90;;;;;;5003713;28;20026;-72
2023/11/01 09:57:34;;;;;;;2.92;0.93;;;19.40;87.70;;;;;;5003528;28;20029;-71
2023/11/01 10:00:03;;;;;;;1.88;0.90;;;18.90;90.40;;;;;;5005268;28;20045;-71
2023/11/01 10:02:30;;;;;;;3.15;0.90;;;18.50;90.80;;;;;;5006746;28;20110;-72
2023/11/01 10:04:56;;;;;;;1.50;1.00;;;18.10;92.00;;;;;;5005094;28;20490;-72
2023/11/01 10:07:22;;;;;;;3.55;1.20;;;17.90;92.60;;;;;;5005946;28;20098;-72
2023/11/01 10:09:49;;;;;;;4.95;1.00;;;17.50;93.00;;;;;;5004943;28;20526;-72
2023/11/01 10:12:16;;;;;;;2.65;0.82;;;17.30;93.60;;;;;;5005446;28;20033;-72
2023/11/01 10:14:42;;;;;;;5.50;1.58;;;17.20;94.20;;;;;;5012339;28;20030;-72
2023/11/01 10:17:09;;;;;;;3.65;1.30;;;17.20;94.60;;;;;;5006008;28;20026;-72
2023/11/01 10:19:35;;;;;;;2.38;0.90;;;17.10;94.60;;;;;;5005910;28;20072;-72
2023/11/01 10:22:01;;;;;;;3.08;1.42;;;16.90;94.70;;;;;;5003923;28;20085;-72
2023/11/01 10:24:29;;;;;;;2.20;0.80;;;16.80;95.40;;;;;;5001876;28;20034;-72
2023/11/01 10:26:58;;;;;;;1.73;0.60;;;16.70;96.00;;;;;;5001868;28;20029;-72
2023/11/01 10:29:27;;;;;;;1.67;0.80;;;17.70;94.90;;;;;;5005281;28;20030;-72
2023/11/01 10:31:59;;;;;;;2.80;1.33;;;19.60;91.60;;;;;;5005216;28;20030;-73
2023/11/01 10:34:29;;;;;;;2.60;0.90;;;21.80;86.40;;;;;;5002068;28;20030;-72
2023/11/01 10:36:57;;;;;;;1.90;0.93;;;23.30;80.80;;;;;;5005589;28;20045;-72
2023/11/01 10:39:23;;;;;;;1.15;0.82;;;24.00;75.70;;;;;;5005278;28;20037;-72
2023/11/01 10:41:51;;;;;;;2.30;0.80;;;23.90;73.60;;;;;;5005832;28;20136;-72
2023/11/01 10:44:20;;;;;;;3.15;0.70;;;23.70;74.20;;;;;;4997649;28;20419;-72
2023/11/01 10:46:50;;;;;;;1.85;0.88;;;23.80;73.20;;;;;;5003605;28;20045;-72
2023/11/01 10:49:16;;;;;;;2.33;1.05;;;23.90;73.20;;;;;;4993913;28;20030;-70
2023/11/01 10:51:43;;;;;;;3.40;1.17;;;24.20;71.40;;;;;;5002346;28;20525;-69
2023/11/01 10:54:10;;;;;;;2.30;0.90;;;23.70;71.80;;;;;;4998874;28;20038;-70
2023/11/01 10:56:36;;;;;;;1.85;1.13;;;23.70;72.80;;;;;;5003169;28;20026;-71
2023/11/01 10:59:47;;;;;;;3.03;0.80;;;22.80;73.60;;;;;;5004453;28;20135;-70
2023/11/01 11:02:18;;;;;;;3.03;0.88;;;20.80;81.20;;;;;;5019104;28;20072;-69
2023/11/01 11:05:04;;;;;;;1.77;1.00;;;19.60;86.20;;;;;;5002167;28;20091;-70
2023/11/01 11:07:38;;;;;;;3.13;0.90;;;18.80;89.10;;;;;;4999586;28;20036;-70
2023/11/01 11:10:23;;;;;;;4.38;0.82;;;17.90;91.00;;;;;;5002202;28;20093;-70
2023/11/01 11:13:08;;;;;;;3.15;0.82;;;17.40;92.30;;;;;;5004566;28;20091;-70
2023/11/01 11:16:09;;;;;;;1.85;0.90;;;16.90;93.60;;;;;;4998458;28;20573;-70
2023/11/01 11:18:44;;;;;;;2.80;0.63;;;16.70;94.90;;;;;;4997473;28;20037;-68
2023/11/01 11:21:45;;;;;;;4.82;0.70;;;16.70;95.30;;;;;;5000324;28;20030;-70
2023/11/01 11:24:55;;;;;;;1.52;0.80;;;16.70;95.70;;;;;;5001617;28;20825;-69
2023/11/01 11:27:47;;;;;;;3.70;0.68;;;16.80;95.70;;;;;;5021653;28;20036;-70
2023/11/01 11:30:13;;;;;;;3.00;0.80;;;16.70;95.00;;;;;;5019725;28;20987;-70
2023/11/01 11:32:39;;;;;;;2.78;0.75;;;16.50;95.70;;;;;;5008178;28;20033;-70
2023/11/01 11:35:18;;;;;;;1.00;0.60;;;16.40;96.20;;;;;;5000570;28;20410;-70
2023/11/01 11:37:44;;;;;;;1.67;0.60;;;16.30;96.10;;;;;;5002516;28;20037;-70
2023/11/01 11:40:10;;;;;;;1.95;0.80;;;16.10;96.90;;;;;;5004666;28;20038;-70
2023/11/01 11:42:44;;;;;;;3.67;0.75;;;16.00;97.10;;;;;;5004066;28;20617;-70
2023/11/01 11:45:10;;;;;;;1.90;0.63;;;15.80;97.60;;;;;;4998465;28;20053;-70
2023/11/01 11:47:36;;;;;;;1.60;0.65;;;15.70;97.90;;;;;;5004745;28;20141;-70
2023/11/01 11:50:09;;;;;;;1.80;0.70;;;15.60;98.40;;;;;;5000421;28;20125;-70
2023/11/01 11:52:35;;;;;;;1.55;0.77;;;15.70;98.50;;;;;;5002258;28;20034;-70
2023/11/01 11:55:03;;;;;;;2.35;0.38;;;15.80;98.30;;;;;;5004542;28;20141;-70
2023/11/01 11:57:30;;;;;;;4.30;2.30;;;15.80;98.40;;;;;;4998266;28;20030;-71
2023/11/01 12:00:10;;;;;;;2.47;0.80;;;15.90;98.70;;;;;;5008685;28;20030;-69
2023/11/01 12:02:37;;;;;;;1.77;1.17;;;16.20;98.40;;;;;;5003127;28;20044;-70
2023/11/01 12:05:04;;;;;;;0.93;0.50;;;16.30;97.60;;;;;;5008253;28;20053;-70
2023/11/01 12:07:30;;;;;;;1.45;0.80;;;16.20;97.90;;;;;;5008687;28;20042;-70
2023/11/01 12:09:56;;;;;;;1.17;0.90;;;16.10;98.10;;;;;;5008548;28;20151;-70
2023/11/01 12:12:26;;;;;;;1.30;0.63;;;15.90;98.20;;;;;;5008257;28;20120;-71
2023/11/01 12:15:03;;;;;;;2.30;0.80;;;15.90;98.60;;;;;;5005619;28;20120;-70
2023/11/01 12:17:29;;;;;;;1.88;0.73;;;15.80;98.90;;;;;;4993034;28;20120;-71
2023/11/01 12:19:56;;;;;;;1.95;0.82;;;15.90;99.30;;;;;;5007738;28;20156;-71
2023/11/01 12:22:23;;;;;;;2.60;0.90;;;16.00;98.90;;;;;;5003932;28;20088;-71
2023/11/01 12:24:51;;;;;;;3.22;0.60;;;16.10;99.10;;;;;;5008143;28;20041;-70
2023/11/01 12:27:18;;;;;;;1.05;0.60;;;16.10;99.10;;;;;;5008015;28;20045;-71
2023/11/01 12:29:54;;;;;;;0.75;0.70;;;16.00;99.00;;;;;;5007627;28;20049;-71
2023/11/01 12:32:30;;;;;;;4.05;0.80;;;15.90;99.40;;;;;;5008048;28;20026;-70
2023/11/01 12:34:57;;;;;;;3.38;0.80;;;15.80;99.40;;;;;;5007906;28;20045;-70
2023/11/01 12:37:24;;;;;;;2.25;0.90;;;15.80;99.90;;;;;;5007987;28;20026;-71
2023/11/01 12:40:11;;;;;;;1.58;0.70;;;15.80;99.80;;;;;;5007819;28;20048;-70
2023/11/01 12:42:42;;;;;;;1.15;0.60;;;15.80;99.90;;;;;;4995056;28;20080;-71
2023/11/01 12:45:09;;;;;;;0.60;0.50;;;15.90;99.90;;;;;;5008112;28;20045;-70
2023/11/01 12:48:02;;;;;;;1.08;0.55;;;16.00;99.70;;;;;;5007855;28;20041;-70